Latest Weather Observations for Barrow Island

IDW60801

Issued at 10:33 am WST Tuesday 21 April 2015 (issued every 30 minutes, with the page automatically refreshed every 10 minutes)

About weather observations | Map of weather stations | Latest weather observations for WA | Other Formats
Station Details ID: 005094 Name: BARROW ISLAND AIRPORT Lat: -20.88 Lon: 115.41 Height: 6.4 m
Data from the previous 72 hours. | See also: Recent months at Barrow Island
Date/Time
WST
Temp
°C
App
Temp
°C
Dew
Point
Rel
Hum
%
Delta-T
°C
Wind Press
QNH
hPa
Press
MSL
hPa
Rain
since 9 am
mm
Dir
 
Spd
km/h
Gust
km/h
Spd
kts
Gust
kts
21/10:30am 21.4 16.5 17.2 77 2.6 E 39 46 21 25 1013.2 - 0.0
21/10:00am 21.2 16.2 17.0 77 2.6 E 39 48 21 26 1013.5 - 0.0
21/09:30am 21.1 15.7 16.9 77 2.6 E 41 48 22 26 1013.6 - 0.0
21/09:00am 21.0 15.5 16.8 77 2.6 E 41 50 22 27 1013.5 1013.5 0.6
21/08:30am 20.8 15.4 17.0 79 2.3 E 41 48 22 26 1013.5 - 0.6
21/08:00am 20.6 14.5 16.6 78 2.4 E 44 52 24 28 1013.4 - 0.6
21/07:30am 20.6 14.5 16.6 78 2.4 E 44 52 24 28 1013.5 - 0.6
21/07:00am 20.6 14.5 16.6 78 2.4 E 44 52 24 28 1013.4 - 0.6
21/06:30am 20.6 14.7 16.6 78 2.4 E 43 52 23 28 1013.3 - 0.6
21/06:00am 20.7 15.0 17.1 80 2.2 E 43 50 23 27 1013.1 1013.1 0.6
21/05:30am 20.8 14.8 17.0 79 2.3 E 44 54 24 29 1013.2 - 0.6
21/05:00am 20.8 14.5 17.2 80 2.2 E 46 54 25 29 1013.2 - 0.6
21/04:30am 20.9 15.1 17.3 80 2.2 E 44 54 24 29 1013.2 - 0.6
21/04:00am 20.8 13.7 17.0 79 2.3 E 50 63 27 34 1013.2 - 0.6
21/03:30am 21.1 14.6 17.5 80 2.2 E 48 57 26 31 1013.2 - 0.6
21/03:00am 21.0 14.6 17.8 82 2.0 E 48 57 26 31 1013.3 1013.3 0.6
21/02:30am 20.7 14.2 17.5 82 2.0 E 48 57 26 31 1013.4 - 0.6
21/02:00am 21.1 14.2 17.5 80 2.2 E 50 57 27 31 1013.4 - 0.2
21/01:30am 22.2 15.5 18.0 77 2.6 E 50 61 27 33 1013.4 - 0.0
21/01:00am 22.1 14.8 17.5 75 2.8 E 52 63 28 34 1013.4 - 0.0
21/12:30am 22.4 15.9 17.5 74 3.0 E 48 57 26 31 1013.5 - 0.0
21/12:00am 22.5 16.3 17.4 73 3.1 E 46 57 25 31 1013.6 1013.6 0.0
 
Date/Time
WST
Temp
°C
App
Temp
°C
Dew
Point
Rel
Hum
%
Delta-T
°C
Wind Press
QNH
hPa
Press
MSL
hPa
Rain
since 9 am
mm
Dir
 
Spd
km/h
Gust
km/h
Spd
kts
Gust
kts
20/11:30pm 22.4 16.1 17.1 72 3.3 E 46 56 25 30 1013.4 - 0.0
20/11:00pm 22.5 14.8 17.4 73 3.1 E 54 63 29 34 1013.4 - 0.0
20/10:30pm 22.2 16.4 17.3 74 3.0 E 44 61 24 33 1013.5 - 0.0
20/10:00pm 22.6 16.6 17.9 75 2.9 E 46 57 25 31 1013.7 - 0.0
20/09:30pm 22.7 16.1 17.4 72 3.3 E 48 59 26 32 1014.0 - 0.0
20/09:00pm 22.8 16.8 16.8 69 3.7 ESE 44 52 24 28 1014.0 1014.0 0.0
20/08:30pm 22.9 16.8 16.7 68 3.8 E 44 54 24 29 1013.9 - 0.0
20/08:00pm 23.1 18.0 16.9 68 3.8 E 39 46 21 25 1013.8 - 0.0
20/07:30pm 23.0 17.5 17.7 72 3.3 E 43 54 23 29 1013.6 - 0.0
20/07:00pm 23.0 16.4 17.2 70 3.6 E 48 57 26 31 1012.9 - 0.0
20/06:30pm 22.9 16.9 17.8 73 3.2 E 46 56 25 30 1012.6 - 0.0
20/06:00pm 22.8 15.6 17.7 73 3.2 E 52 65 28 35 1012.8 1012.8 0.0
20/05:30pm 22.7 15.8 17.6 73 3.2 E 50 59 27 32 1012.5 - 0.0
20/05:00pm 23.1 15.4 18.4 75 3.0 E 56 67 30 36 1012.0 - 0.0
20/04:30pm 23.2 16.3 18.5 75 3.0 E 52 63 28 34 1012.0 - 0.0
20/04:00pm 23.1 16.1 18.2 74 3.1 E 52 63 28 34 1011.7 - 0.0
20/03:30pm 23.2 16.4 18.7 76 2.8 E 52 65 28 35 1011.9 - 0.0
20/03:00pm 23.0 15.9 18.7 77 2.7 E 54 63 29 34 1011.8 1011.8 0.0
20/02:30pm 23.0 15.8 18.5 76 2.8 E 54 69 29 37 1012.0 - 0.0
20/02:00pm 23.3 15.9 19.0 77 2.7 E 56 65 30 35 1011.8 - 0.0
20/01:30pm 23.1 15.3 18.4 75 3.0 E 57 67 31 36 1012.1 - 0.0
20/01:00pm 23.2 15.7 18.7 76 2.8 E 56 65 30 35 1012.6 - 0.0
20/12:30pm 23.2 15.9 19.1 78 2.6 E 56 69 30 37 1013.1 - 0.0
20/12:00pm 23.1 14.7 18.8 77 2.7 E 61 72 33 39 1013.5 1013.5 0.0
20/11:30am 22.9 14.3 18.4 76 2.8 E 61 72 33 39 1014.0 - 0.0
20/11:00am 22.7 14.1 18.5 77 2.6 E 61 74 33 40 1014.5 - 0.0
20/10:30am 22.7 14.5 18.5 77 2.6 E 59 72 32 39 1014.8 - 0.0
20/10:00am 22.3 13.9 17.9 76 2.7 E 59 69 32 37 1015.0 - 0.0
20/09:30am 22.3 14.5 18.5 79 2.4 E 57 70 31 38 1015.2 - 0.0
20/09:00am 22.0 14.1 18.2 79 2.4 E 57 67 31 36 1015.1 1015.1 10.2
20/08:30am 22.0 13.7 18.2 79 2.4 E 59 70 32 38 1014.8 - 10.2
20/08:00am 22.0 14.1 18.2 79 2.4 E 57 70 31 38 1014.7 - 10.2
20/07:30am 21.7 12.5 17.9 79 2.4 E 63 76 34 41 1014.3 - 10.2
20/07:00am 21.8 13.4 18.0 79 2.4 E 59 76 32 41 1014.0 - 10.2
20/06:30am 21.9 14.1 18.5 81 2.1 E 57 69 31 37 1014.2 - 10.2
20/06:00am 22.0 14.3 18.8 82 2.0 E 57 70 31 38 1013.7 1013.7 10.2
20/05:30am 21.8 14.0 18.6 82 2.0 E 57 69 31 37 1013.5 - 10.2
20/05:00am 21.8 14.2 18.6 82 2.0 E 56 69 30 37 1013.3 - 10.2
20/04:30am 22.1 15.4 18.9 82 2.0 E 52 61 28 33 1014.0 - 10.2
20/04:00am 22.2 15.8 19.4 84 1.8 E 52 61 28 33 1013.8 - 10.2
20/03:30am 22.0 14.4 18.6 81 2.1 E 56 65 30 35 1013.8 - 10.2
20/03:00am 22.1 14.7 18.9 82 2.0 E 56 65 30 35 1014.5 1014.5 10.2
20/02:30am 22.4 15.7 19.6 84 1.8 E 54 65 29 35 1014.6 - 10.2
20/02:00am 22.4 16.6 19.2 82 2.0 E 48 56 26 30 1014.9 - 10.2
20/01:30am 22.2 17.0 18.8 81 2.1 E 44 52 24 28 1015.1 - 10.2
20/01:00am 22.1 17.1 18.9 82 2.0 E 43 52 23 28 1015.4 - 10.2
20/12:30am 22.2 18.4 19.0 82 2.0 ESE 37 44 20 24 1015.8 - 10.2
20/12:00am 22.3 18.4 19.5 84 1.8 E 39 46 21 25 1015.6 1015.6 10.2
 
Date/Time
WST
Temp
°C
App
Temp
°C
Dew
Point
Rel
Hum
%
Delta-T
°C
Wind Press
QNH
hPa
Press
MSL
hPa
Rain
since 9 am
mm
Dir
 
Spd
km/h
Gust
km/h
Spd
kts
Gust
kts
19/11:30pm 22.2 17.3 19.4 84 1.8 E 44 50 24 27 1016.0 - 10.2
19/11:00pm 22.1 16.0 19.3 84 1.8 E 50 57 27 31 1016.0 - 10.0
19/10:30pm 22.1 16.0 19.3 84 1.8 E 50 59 27 32 1015.7 - 9.2
19/10:00pm 22.3 15.9 19.5 84 1.8 E 52 63 28 34 1015.3 - 8.8
19/09:30pm 22.3 15.0 19.3 83 1.9 E 56 65 30 35 1015.2 - 8.6
19/09:00pm 22.6 15.5 19.6 83 1.9 E 56 67 30 36 1015.3 1015.3 8.4
19/08:30pm 22.7 16.1 19.9 84 1.8 E 54 63 29 34 1015.2 - 8.2
19/08:00pm 22.7 16.4 19.7 83 1.9 E 52 63 28 34 1014.7 - 8.2
19/07:30pm 22.5 15.8 19.7 84 1.8 ENE 54 65 29 35 1014.3 - 8.2
19/07:00pm 22.7 16.9 20.0 85 1.7 ENE 50 63 27 34 1014.4 - 8.0
19/06:30pm 22.6 17.0 20.3 87 1.5 ENE 50 63 27 34 1014.1 - 7.8
19/06:00pm 22.7 15.3 20.2 86 1.6 ENE 59 70 32 38 1013.6 1013.6 6.6
19/05:30pm 22.9 15.8 19.7 82 2.1 ENE 56 69 30 37 1013.4 - 6.2
19/05:00pm 22.9 14.6 19.9 83 1.9 ENE 63 78 34 42 1012.9 - 6.0
19/04:46pm 23.2 16.1 20.0 82 2.1 ENE 57 78 31 42 1012.8 - 5.6
19/04:30pm 23.2 17.3 19.8 81 2.2 E 50 61 27 33 1013.4 - 5.6
19/04:00pm 23.0 16.8 20.0 83 1.9 E 52 63 28 34 1013.2 - 5.6
19/03:30pm 23.3 17.1 19.9 81 2.2 E 52 59 28 32 1013.2 - 5.6
19/03:00pm 23.7 18.1 20.4 82 2.1 ENE 50 61 27 33 1013.4 1013.4 5.6
19/02:30pm 23.3 17.0 19.7 80 2.3 ENE 52 61 28 33 1013.6 - 5.6
19/02:00pm 23.0 17.6 20.0 83 1.9 ENE 48 56 26 30 1013.9 - 5.6
19/01:30pm 23.1 17.9 20.4 85 1.7 ENE 48 59 26 32 1014.2 - 5.6
19/01:00pm 23.1 17.5 20.4 85 1.7 E 50 57 27 31 1014.7 - 5.6
19/12:30pm 22.6 16.4 19.9 85 1.7 ENE 52 59 28 32 1015.3 - 5.4
19/12:00pm 22.5 17.0 19.9 85 1.7 ENE 48 57 26 31 1015.7 1015.7 4.6
19/11:30am 22.6 17.1 20.5 88 1.4 ENE 50 57 27 31 1016.2 - 4.0
19/11:00am 22.5 17.1 20.0 86 1.6 ENE 48 57 26 31 1016.5 - 3.2
19/10:30am 22.4 17.9 20.3 88 1.4 E 44 54 24 29 1016.5 - 2.2
19/10:00am 22.6 18.0 20.1 86 1.6 E 44 52 24 28 1016.4 - 1.0
19/09:30am 22.8 18.5 20.7 88 1.4 ENE 44 52 24 28 1016.3 - 0.8
19/09:00am 22.6 18.8 20.5 88 1.4 E 41 46 22 25 1016.3 1016.3 22.2
19/08:30am 22.4 18.6 20.5 89 1.2 E 41 48 22 26 1016.0 - 21.4
19/08:00am 22.4 18.1 20.3 88 1.4 E 43 52 23 28 1015.5 - 21.0
19/07:30am 22.4 18.0 20.1 87 1.5 E 43 50 23 27 1015.1 - 20.6
19/07:00am 22.6 18.5 20.7 89 1.2 E 43 50 23 27 1014.9 - 20.4
19/06:30am 22.4 18.5 20.3 88 1.4 E 41 46 22 25 1014.7 - 20.2
19/06:00am 22.3 18.7 20.2 88 1.4 E 39 46 21 25 1014.4 1014.4 20.0
19/05:30am 22.2 18.7 20.3 89 1.2 E 39 44 21 24 1014.3 - 19.0
19/05:00am 22.7 20.0 21.2 91 1.0 ENE 37 46 20 25 1014.3 - 16.4
19/04:30am 22.6 19.4 20.3 87 1.5 ENE 37 44 20 24 1014.0 - 13.0
19/04:00am 22.8 18.9 20.3 86 1.6 E 41 48 22 26 1013.5 - 10.8
19/03:30am 22.9 18.4 20.2 85 1.7 ENE 44 52 24 28 1013.1 - 9.8
19/03:00am 23.1 18.2 20.2 84 1.9 E 46 54 25 29 1013.1 1013.1 9.0
19/02:30am 23.3 18.4 20.2 83 2.0 E 46 52 25 28 1013.6 - 8.8
19/02:00am 23.0 18.5 20.3 85 1.7 E 44 52 24 28 1013.8 - 8.2
19/01:30am 23.2 19.4 20.5 85 1.8 E 41 48 22 26 1014.1 - 6.2
19/01:00am 23.0 19.3 20.0 83 1.9 E 39 46 21 25 1014.4 - 3.4
19/12:30am 23.7 19.7 19.4 77 2.8 E 39 46 21 25 1014.5 - 2.0
19/12:00am 23.8 20.1 19.9 79 2.5 E 39 44 21 24 1014.5 1014.5 2.0
 
Date/Time
WST
Temp
°C
App
Temp
°C
Dew
Point
Rel
Hum
%
Delta-T
°C
Wind Press
QNH
hPa
Press
MSL
hPa
Rain
since 9 am
mm
Dir
 
Spd
km/h
Gust
km/h
Spd
kts
Gust
kts
18/11:30pm 23.8 20.3 19.5 77 2.8 E 37 44 20 24 1015.0 - 1.8
18/11:00pm 23.8 19.8 20.1 80 2.4 E 41 48 22 26 1015.1 - 1.8
18/10:30pm 23.8 19.5 19.5 77 2.8 E 41 50 22 27 1015.3 - 1.8
18/10:00pm 24.0 19.1 19.1 74 3.1 E 43 48 23 26 1015.3 - 1.8
18/09:30pm 24.1 19.6 20.0 78 2.6 E 43 48 23 26 1015.2 - 1.8
18/09:00pm 24.0 20.5 20.3 80 2.4 ESE 39 48 21 26 1015.1 1015.1 1.8
18/08:30pm 24.2 20.3 20.3 79 2.5 ESE 41 44 22 24 1015.1 - 1.8
18/08:00pm 23.9 20.6 20.0 79 2.5 ESE 37 44 20 24 1015.0 - 1.8
18/07:30pm 23.9 21.7 20.8 83 2.0 SE 33 39 18 21 1014.8 - 1.6
18/07:00pm 23.9 21.2 20.4 81 2.3 SE 35 39 19 21 1014.6 - 1.6
18/06:30pm 24.3 23.9 21.6 85 1.8 SE 26 32 14 17 1014.4 - 1.4
18/06:00pm 24.3 23.6 21.0 82 2.2 SE 26 32 14 17 1014.1 1014.1 1.0
18/05:30pm 24.7 24.3 21.0 80 2.4 ESE 24 28 13 15 1013.6 - 0.6
18/05:00pm 24.8 24.8 20.1 75 3.0 ESE 20 24 11 13 1013.4 - 0.4
18/04:30pm 25.2 25.5 20.7 76 2.9 E 20 24 11 13 1013.2 - 0.2
18/04:00pm 25.5 25.7 20.5 74 3.3 ESE 20 24 11 13 1013.0 - 0.0
18/03:30pm 26.2 26.4 20.1 69 4.0 ESE 19 22 10 12 1012.9 - 0.0
18/03:00pm 26.4 26.5 20.3 69 4.0 ESE 20 26 11 14 1012.9 1012.9 0.0
18/02:30pm 26.3 25.6 19.4 66 4.5 E 22 28 12 15 1013.0 - 0.0
18/02:00pm 26.2 25.4 20.1 69 4.0 ESE 24 30 13 16 1013.2 - 0.0
18/01:30pm 26.2 24.7 20.3 70 3.9 ESE 28 33 15 18 1013.3 - 0.0
18/01:00pm 26.0 24.3 19.9 69 4.0 ESE 28 32 15 17 1013.8 - 0.0
18/12:30pm 25.9 25.1 20.9 74 3.3 ESE 26 32 14 17 1014.2 - 0.0
18/12:00pm 25.8 24.2 20.8 74 3.3 ESE 30 33 16 18 1014.5 1014.5 0.0
18/11:30am 25.7 24.5 20.9 75 3.2 ESE 28 35 15 19 1014.9 - 0.0
18/11:00am 25.8 24.1 20.6 73 3.4 ESE 30 35 16 19 1015.3 - 0.0

Other Formats:

Comma delimited format used in spreadsheet applications
http://www.bom.gov.au/fwo/IDW60801/IDW60801.95304.axf

JavaScript Object Notation format (JSON) in row-major order
http://www.bom.gov.au/fwo/IDW60801/IDW60801.95304.json